Time;durP1;ratioP1;P1;durP2;ratioP2;P2;SDS_P1;SDS_P2;PMS_P1;PMS_P2;Temp;Humidity;BMP_temperature;BMP_pressure;BME280_temperature;BME280_humidity;BME280_pressure;Samples;Min_cycle;Max_cycle;Signal;HPM_P1;HPM_P2
2021/01/28 00:00:38;;;;;;;59.00;28.00;;;6.90;99.90;;;;;;4146535;28;20136;-84
2021/01/28 00:02:39;;;;;;;61.13;28.42;;;6.80;99.90;;;;;;4156820;28;20030;-84
2021/01/28 00:04:42;;;;;;;54.22;25.90;;;6.80;99.90;;;;;;4149265;28;20072;-84
2021/01/28 00:06:43;;;;;;;56.70;26.10;;;6.80;99.90;;;;;;4162835;28;20034;-84
2021/01/28 00:08:43;;;;;;;64.70;29.45;;;6.80;99.90;;;;;;4145904;28;20030;-84
2021/01/28 00:10:44;;;;;;;58.45;25.85;;;6.80;99.90;;;;;;4162457;28;20095;-84
2021/01/28 00:12:46;;;;;;;56.40;25.90;;;6.80;99.90;;;;;;4147426;28;20050;-84
2021/01/28 00:14:47;;;;;;;46.83;25.52;;;6.80;99.90;;;;;;4156891;28;20033;-84
2021/01/28 00:16:47;;;;;;;61.70;27.77;;;6.80;99.90;;;;;;4162160;28;20076;-85
2021/01/28 00:18:48;;;;;;;51.30;24.98;;;6.80;99.90;;;;;;4162838;28;20041;-85
2021/01/28 00:20:50;;;;;;;50.55;24.35;;;6.80;99.90;;;;;;4147773;28;20050;-84
2021/01/28 00:22:51;;;;;;;58.73;26.07;;;6.80;99.90;;;;;;4169449;28;20133;-84
2021/01/28 00:25:04;;;;;;;52.97;25.05;;;6.80;99.90;;;;;;4168515;28;20048;-84
2021/01/28 00:27:05;;;;;;;51.22;25.00;;;6.80;99.90;;;;;;4149597;28;20478;-84
2021/01/28 00:29:06;;;;;;;52.05;24.80;;;6.80;99.90;;;;;;4150558;28;20038;-84
2021/01/28 00:31:06;;;;;;;51.33;24.30;;;6.80;99.90;;;;;;4145554;28;20026;-84
2021/01/28 00:33:09;;;;;;;56.95;26.40;;;6.70;99.90;;;;;;4166391;28;20452;-84
2021/01/28 00:35:12;;;;;;;64.47;29.23;;;6.80;99.90;;;;;;4149777;28;20026;-84
2021/01/28 00:37:14;;;;;;;49.85;24.17;;;6.70;99.90;;;;;;4141046;28;20406;-84
2021/01/28 00:39:14;;;;;;;57.33;27.55;;;6.70;99.90;;;;;;4159487;28;20032;-84
2021/01/28 00:41:15;;;;;;;58.75;25.98;;;6.70;99.90;;;;;;4145833;28;20552;-84
2021/01/28 00:43:17;;;;;;;60.30;25.60;;;6.70;99.90;;;;;;4159331;28;20048;-84
2021/01/28 00:45:23;;;;;;;50.88;23.67;;;6.70;99.90;;;;;;4165246;28;20034;-84
2021/01/28 00:47:25;;;;;;;46.13;22.83;;;6.70;99.90;;;;;;4156268;28;20026;-84
2021/01/28 00:49:25;;;;;;;52.20;23.85;;;6.70;99.90;;;;;;4178720;28;20121;-84
2021/01/28 00:51:26;;;;;;;49.40;24.25;;;6.70;99.90;;;;;;4154004;28;20633;-84
2021/01/28 00:53:27;;;;;;;48.00;23.30;;;6.70;99.90;;;;;;4143033;28;20559;-84
2021/01/28 00:55:27;;;;;;;52.10;23.70;;;6.80;99.90;;;;;;4143215;28;20029;-84
2021/01/28 00:57:28;;;;;;;48.15;23.00;;;6.70;99.90;;;;;;4163136;28;20056;-84
2021/01/28 00:59:29;;;;;;;57.28;25.15;;;6.80;99.90;;;;;;4163426;28;20482;-84
2021/01/28 01:01:29;;;;;;;52.47;24.27;;;6.80;99.90;;;;;;4161919;28;20024;-84
2021/01/28 01:03:30;;;;;;;51.45;24.50;;;6.80;99.90;;;;;;4167902;28;20036;-84
2021/01/28 01:05:33;;;;;;;51.58;23.83;;;6.70;99.90;;;;;;4162759;28;20112;-84
2021/01/28 01:07:35;;;;;;;64.05;26.88;;;6.80;99.90;;;;;;4160923;28;20030;-84
2021/01/28 01:09:36;;;;;;;49.25;24.00;;;6.70;99.90;;;;;;4174890;28;20098;-84
2021/01/28 01:11:36;;;;;;;55.53;23.30;;;6.70;99.90;;;;;;4162030;28;20030;-84
2021/01/28 01:13:39;;;;;;;52.72;24.05;;;6.70;99.90;;;;;;4161952;28;20022;-84
2021/01/28 01:15:40;;;;;;;49.83;23.30;;;6.70;99.90;;;;;;4143602;28;20406;-84
2021/01/28 01:17:41;;;;;;;57.28;23.60;;;6.70;99.90;;;;;;4161552;28;20087;-84
2021/01/28 01:19:42;;;;;;;53.00;23.83;;;6.80;99.90;;;;;;4145655;28;20038;-84
2021/01/28 01:21:42;;;;;;;51.80;23.58;;;6.80;99.90;;;;;;4161667;28;20111;-84
2021/01/28 01:23:43;;;;;;;51.17;24.50;;;6.80;99.90;;;;;;4166849;28;20040;-84
2021/01/28 01:25:44;;;;;;;54.10;23.73;;;6.80;99.90;;;;;;4184013;28;21014;-84
2021/01/28 01:27:45;;;;;;;49.45;22.63;;;6.80;99.90;;;;;;4156357;28;20124;-84
2021/01/28 01:29:54;;;;;;;59.00;25.48;;;6.80;99.90;;;;;;4162930;28;20029;-84
2021/01/28 01:31:54;;;;;;;57.30;25.58;;;6.70;99.90;;;;;;4161346;28;20467;-84
2021/01/28 01:33:55;;;;;;;50.65;22.95;;;6.70;99.90;;;;;;4170368;28;20032;-84
2021/01/28 01:35:56;;;;;;;52.88;25.30;;;6.70;99.90;;;;;;4150613;28;20159;-84
2021/01/28 01:37:58;;;;;;;58.35;25.15;;;6.70;99.90;;;;;;4147522;28;20457;-84
2021/01/28 01:39:59;;;;;;;54.33;25.20;;;6.70;99.90;;;;;;4171854;28;20069;-84
2021/01/28 01:41:59;;;;;;;41.30;20.90;;;6.70;99.90;;;;;;4165540;28;20042;-84
2021/01/28 01:44:01;;;;;;;51.28;23.13;;;6.70;99.90;;;;;;4140149;28;20037;-84
2021/01/28 01:46:05;;;;;;;63.30;24.90;;;6.70;99.90;;;;;;4161944;28;20037;-84
2021/01/28 01:48:30;;;;;;;48.63;22.48;;;6.70;99.90;;;;;;4161655;28;20091;-84
2021/01/28 01:51:04;;;;;;;55.17;24.58;;;6.70;99.90;;;;;;4168689;28;20037;-84
2021/01/28 01:53:05;;;;;;;;;;;6.70;99.90;;;;;;4174166;28;20026;-84
2021/01/28 01:55:07;;;;;;;65.43;28.58;;;6.60;99.90;;;;;;4165342;28;19908;-84
2021/01/28 01:57:21;;;;;;;66.82;29.67;;;6.70;99.90;;;;;;4165656;28;20052;-84
2021/01/28 01:59:51;;;;;;;72.38;32.20;;;6.60;99.90;;;;;;4160452;28;20034;-84
2021/01/28 02:02:00;;;;;;;71.28;32.60;;;6.60;99.90;;;;;;4146928;28;20394;-84
2021/01/28 02:04:02;;;;;;;67.15;31.90;;;6.70;99.90;;;;;;4147826;28;20033;-84
2021/01/28 02:06:28;;;;;;;73.63;34.85;;;6.60;99.90;;;;;;4146298;28;20129;-84
2021/01/28 02:08:29;;;;;;;73.68;34.55;;;6.70;99.90;;;;;;4159592;28;20370;-84
2021/01/28 02:10:30;;;;;;;70.43;33.72;;;6.60;99.90;;;;;;4161206;28;20435;-84
2021/01/28 02:12:31;;;;;;;73.57;33.17;;;6.60;99.90;;;;;;4168854;28;20034;-84
2021/01/28 02:14:32;;;;;;;63.13;30.02;;;6.60;99.90;;;;;;4159448;28;20508;-84
2021/01/28 02:17:01;;;;;;;60.40;29.52;;;6.70;99.90;;;;;;4144570;28;20136;-84
2021/01/28 02:19:06;;;;;;;60.13;28.40;;;6.70;99.90;;;;;;4151977;28;20136;-84
2021/01/28 02:21:10;;;;;;;54.92;26.05;;;6.70;99.90;;;;;;4162649;28;20382;-84
2021/01/28 02:23:22;;;;;;;61.55;27.95;;;6.70;99.90;;;;;;4145016;28;20042;-84
2021/01/28 02:25:35;;;;;;;50.40;23.95;;;6.70;99.90;;;;;;4165862;28;20455;-84
2021/01/28 02:27:39;;;;;;;55.58;25.77;;;6.70;99.90;;;;;;4146723;28;20732;-84
2021/01/28 02:29:40;;;;;;;56.30;26.20;;;6.60;99.90;;;;;;4157066;28;20045;-84
2021/01/28 02:31:49;;;;;;;50.80;24.35;;;6.60;99.90;;;;;;4168218;28;22180;-84
2021/01/28 02:33:57;;;;;;;51.15;22.05;;;6.60;99.90;;;;;;4165840;28;20545;-84
2021/01/28 02:35:57;;;;;;;55.95;25.25;;;6.60;99.90;;;;;;4164232;28;20026;-85
2021/01/28 02:38:02;;;;;;;50.65;24.23;;;6.70;99.90;;;;;;4167581;28;20100;-84
2021/01/28 02:40:03;;;;;;;49.80;24.40;;;6.60;99.90;;;;;;4157643;28;20030;-84
2021/01/28 02:42:32;;;;;;;49.20;23.67;;;6.60;99.90;;;;;;4154775;28;21530;-84
2021/01/28 02:44:33;;;;;;;54.25;23.98;;;6.60;99.90;;;;;;4148743;28;20038;-84
2021/01/28 02:46:34;;;;;;;51.67;22.52;;;6.60;99.90;;;;;;4151837;28;20418;-84
2021/01/28 02:48:35;;;;;;;50.67;23.88;;;6.60;99.90;;;;;;4166055;28;20120;-84
2021/01/28 02:50:38;;;;;;;50.85;23.15;;;6.60;99.90;;;;;;4148699;28;20386;-84
2021/01/28 02:52:38;;;;;;;46.22;22.33;;;6.60;99.90;;;;;;4136490;28;20040;-84
2021/01/28 02:54:44;;;;;;;45.53;21.70;;;6.60;99.90;;;;;;4164318;28;20037;-84
2021/01/28 02:56:45;;;;;;;48.38;23.25;;;6.60;99.90;;;;;;4165720;28;20030;-85
2021/01/28 02:58:46;;;;;;;46.28;22.55;;;6.60;99.90;;;;;;4165869;28;20025;-85
2021/01/28 03:00:47;;;;;;;51.38;24.35;;;6.60;99.90;;;;;;4163686;28;20079;-84
2021/01/28 03:02:50;;;;;;;49.00;23.45;;;6.60;99.90;;;;;;4168750;28;20033;-84
2021/01/28 03:04:51;;;;;;;51.13;22.90;;;6.60;99.90;;;;;;4163599;28;20202;-84
2021/01/28 03:06:51;;;;;;;55.95;24.42;;;6.60;99.90;;;;;;4163271;28;20097;-84
2021/01/28 03:08:52;;;;;;;46.75;22.20;;;6.60;99.90;;;;;;4165090;28;20037;-84
2021/01/28 03:10:54;;;;;;;50.30;22.95;;;6.60;99.90;;;;;;4182694;28;20079;-84
2021/01/28 03:13:03;;;;;;;50.00;23.52;;;6.60;99.90;;;;;;4163653;28;20051;-84
2021/01/28 03:15:09;;;;;;;53.83;23.77;;;6.60;99.90;;;;;;4144416;28;20037;-84
2021/01/28 03:17:09;;;;;;;51.58;23.95;;;6.60;99.90;;;;;;4166685;28;20026;-84
2021/01/28 03:19:12;;;;;;;50.75;24.00;;;6.60;99.90;;;;;;4163385;28;20334;-84
2021/01/28 03:21:13;;;;;;;47.97;22.98;;;6.60;99.90;;;;;;4164727;28;20026;-84
2021/01/28 03:23:15;;;;;;;48.33;21.88;;;6.60;99.90;;;;;;4147121;28;20037;-84
2021/01/28 03:25:18;;;;;;;48.72;22.88;;;6.60;99.90;;;;;;4183701;28;20113;-84
2021/01/28 03:27:18;;;;;;;;;;;6.60;99.90;;;;;;4147828;28;20076;-84
2021/01/28 03:29:19;;;;;;;42.58;19.55;;;6.60;99.90;;;;;;4163139;28;20339;-84
2021/01/28 03:31:33;;;;;;;46.47;21.77;;;6.60;99.90;;;;;;4162236;28;20397;-84
2021/01/28 03:33:34;;;;;;;43.03;20.13;;;6.60;99.90;;;;;;4151957;28;20556;-84
2021/01/28 03:35:35;;;;;;;38.28;19.15;;;6.60;99.90;;;;;;4164318;28;20041;-84
2021/01/28 03:37:36;;;;;;;38.70;19.48;;;6.60;99.90;;;;;;4166607;28;20053;-84
2021/01/28 03:39:37;;;;;;;45.40;20.92;;;6.60;99.90;;;;;;4147806;28;20454;-84
2021/01/28 03:41:37;;;;;;;45.30;19.50;;;6.60;99.90;;;;;;4167677;28;20209;-84
2021/01/28 03:43:38;;;;;;;36.97;18.90;;;6.60;99.90;;;;;;4164431;28;20648;-84
2021/01/28 03:45:38;;;;;;;40.28;19.85;;;6.70;99.90;;;;;;4146905;28;20034;-84
2021/01/28 03:47:39;;;;;;;40.47;19.83;;;6.70;99.90;;;;;;4172439;28;20028;-84
2021/01/28 03:49:40;;;;;;;39.85;18.77;;;6.70;99.90;;;;;;4172026;28;20034;-84
2021/01/28 03:51:41;;;;;;;40.15;19.05;;;6.70;99.90;;;;;;4150842;28;20497;-84
2021/01/28 03:53:41;;;;;;;40.53;19.45;;;6.70;99.90;;;;;;4159991;28;20092;-84
2021/01/28 03:55:42;;;;;;;39.97;18.70;;;6.70;99.90;;;;;;4148257;28;20486;-84
2021/01/28 03:57:46;;;;;;;38.15;17.38;;;6.70;99.90;;;;;;4142982;28;20524;-84
2021/01/28 03:59:47;;;;;;;37.25;17.48;;;6.70;99.90;;;;;;4147229;28;20363;-84
2021/01/28 04:01:47;;;;;;;39.22;18.23;;;6.70;99.90;;;;;;4154453;28;20052;-84
2021/01/28 04:03:48;;;;;;;34.92;17.48;;;6.70;99.90;;;;;;4163064;28;20091;-84
2021/01/28 04:05:49;;;;;;;41.30;18.60;;;6.70;99.90;;;;;;4164062;28;20442;-84
2021/01/28 04:07:50;;;;;;;40.40;19.00;;;6.70;99.90;;;;;;4148710;28;20026;-84
2021/01/28 04:09:50;;;;;;;37.22;18.52;;;6.70;99.90;;;;;;4163320;28;20645;-84
2021/01/28 04:11:51;;;;;;;36.83;17.38;;;6.70;99.90;;;;;;4166229;28;20056;-84
2021/01/28 04:13:52;;;;;;;32.85;16.38;;;6.70;99.90;;;;;;4168359;28;20544;-84
2021/01/28 04:15:53;;;;;;;33.63;16.30;;;6.70;99.90;;;;;;4162757;28;20033;-84
2021/01/28 04:17:54;;;;;;;45.78;19.75;;;6.70;99.90;;;;;;4152995;28;20036;-84
2021/01/28 04:19:55;;;;;;;38.72;17.58;;;6.70;99.90;;;;;;4162982;28;20034;-84
2021/01/28 04:22:00;;;;;;;44.05;19.80;;;6.70;99.90;;;;;;4163907;28;20041;-84
2021/01/28 04:24:02;;;;;;;38.45;17.33;;;6.70;99.90;;;;;;4162520;28;20037;-84
2021/01/28 04:26:10;;;;;;;38.22;18.27;;;6.70;99.90;;;;;;4152734;28;20446;-84
2021/01/28 04:28:18;;;;;;;33.42;17.20;;;6.70;99.90;;;;;;4166136;28;20172;-84
2021/01/28 04:30:24;;;;;;;33.25;16.33;;;6.70;99.90;;;;;;4163339;28;20056;-84
2021/01/28 04:32:24;;;;;;;34.10;16.90;;;6.70;99.90;;;;;;4164814;28;20037;-84
2021/01/28 04:34:25;;;;;;;45.47;19.65;;;6.70;99.90;;;;;;4145794;28;20562;-84
2021/01/28 04:36:26;;;;;;;32.47;16.42;;;6.70;99.90;;;;;;4162895;28;20508;-84
2021/01/28 04:38:27;;;;;;;38.08;17.25;;;6.70;99.90;;;;;;4149132;28;20038;-84
2021/01/28 04:40:37;;;;;;;34.72;16.02;;;6.70;99.90;;;;;;4162077;28;20064;-84
2021/01/28 04:42:45;;;;;;;30.63;15.18;;;6.70;99.90;;;;;;4146606;28;20116;-84
2021/01/28 04:44:47;;;;;;;35.28;14.93;;;6.80;99.90;;;;;;4162496;28;20035;-84
2021/01/28 04:46:53;;;;;;;36.90;16.63;;;6.70;99.90;;;;;;4146236;28;20672;-84
2021/01/28 04:48:56;;;;;;;35.50;17.38;;;6.80;99.90;;;;;;4168335;28;20141;-84
2021/01/28 04:50:58;;;;;;;33.60;15.50;;;6.80;99.90;;;;;;4165618;28;20045;-84
2021/01/28 04:53:07;;;;;;;38.15;16.70;;;6.80;99.90;;;;;;4147849;28;20043;-84
2021/01/28 04:55:12;;;;;;;39.25;17.95;;;6.70;99.90;;;;;;4149492;28;20041;-84
2021/01/28 04:57:13;;;;;;;29.95;15.10;;;6.70;99.90;;;;;;4169012;28;20036;-84
2021/01/28 04:59:21;;;;;;;35.90;15.20;;;6.70;99.90;;;;;;4153822;28;20632;-84
2021/01/28 05:01:30;;;;;;;41.05;16.00;;;6.70;99.90;;;;;;4163539;28;20033;-84
2021/01/28 05:03:45;;;;;;;46.78;18.17;;;6.70;99.90;;;;;;4168882;28;20116;-84
2021/01/28 05:05:50;;;;;;;36.58;16.27;;;6.70;99.90;;;;;;4156699;28;20053;-84
2021/01/28 05:07:51;;;;;;;32.13;15.43;;;6.70;99.90;;;;;;4160192;28;20569;-84
2021/01/28 05:10:12;;;;;;;32.08;15.50;;;6.70;99.90;;;;;;4167759;28;20032;-84
2021/01/28 05:12:21;;;;;;;34.15;16.30;;;6.70;99.90;;;;;;4182626;28;20028;-84
2021/01/28 05:14:25;;;;;;;30.00;13.40;;;6.70;99.90;;;;;;4152906;28;20516;-84
2021/01/28 05:16:42;;;;;;;30.98;14.95;;;6.70;99.90;;;;;;4165605;28;20030;-84
2021/01/28 05:18:43;;;;;;;31.90;15.02;;;6.70;99.90;;;;;;4140232;28;20065;-84
2021/01/28 05:20:45;;;;;;;30.40;14.73;;;6.70;99.90;;;;;;4147225;28;20542;-84
2021/01/28 05:23:02;;;;;;;33.95;15.68;;;6.70;99.90;;;;;;4144389;28;20034;-84
2021/01/28 05:25:30;;;;;;;34.42;16.48;;;6.70;99.90;;;;;;4176847;28;20044;-84
2021/01/28 05:27:36;;;;;;;26.95;13.30;;;6.70;99.90;;;;;;4161515;28;20095;-84
2021/01/28 05:29:39;;;;;;;23.90;13.20;;;6.70;99.90;;;;;;4168451;28;20045;-84
2021/01/28 05:31:40;;;;;;;24.83;14.30;;;6.70;99.90;;;;;;4154212;28;20033;-84
2021/01/28 05:33:41;;;;;;;25.58;14.38;;;6.70;99.90;;;;;;4152035;28;20103;-84
2021/01/28 05:35:42;;;;;;;24.80;12.60;;;6.70;99.90;;;;;;4143645;28;22308;-84
2021/01/28 05:37:43;;;;;;;25.55;13.35;;;6.70;99.90;;;;;;4159893;28;20470;-84
2021/01/28 05:40:30;;;;;;;26.02;13.82;;;6.60;99.90;;;;;;4181323;28;20037;-84
2021/01/28 05:42:32;;;;;;;27.75;13.13;;;6.60;99.90;;;;;;4148753;28;20652;-84
2021/01/28 05:44:34;;;;;;;28.17;14.57;;;6.60;99.90;;;;;;4169220;28;20067;-84
2021/01/28 05:46:35;;;;;;;23.23;14.15;;;6.60;99.90;;;;;;4160278;28;20034;-84
2021/01/28 05:48:35;;;;;;;22.88;11.75;;;6.60;99.90;;;;;;4143670;28;20034;-84
2021/01/28 05:50:36;;;;;;;17.35;10.13;;;6.50;99.90;;;;;;4151727;28;20037;-84
2021/01/28 05:52:37;;;;;;;21.10;10.90;;;6.50;99.90;;;;;;4149354;28;20180;-84
2021/01/28 05:54:38;;;;;;;15.48;8.77;;;6.50;99.90;;;;;;4143986;28;20465;-84
2021/01/28 05:57:07;;;;;;;13.07;8.32;;;6.40;99.90;;;;;;4171195;28;20044;-84
2021/01/28 05:59:22;;;;;;;13.18;8.40;;;6.40;99.90;;;;;;4156929;28;20088;-84
2021/01/28 06:01:55;;;;;;;13.25;7.90;;;6.40;99.90;;;;;;4159913;28;20497;-84
2021/01/28 06:04:46;;;;;;;10.48;7.38;;;6.40;99.90;;;;;;4161971;28;20080;-84
2021/01/28 06:07:09;;;;;;;9.50;6.35;;;6.40;99.90;;;;;;4136757;28;20038;-85
2021/01/28 06:10:04;;;;;;;10.50;6.30;;;6.40;99.90;;;;;;4157155;28;20037;-84
2021/01/28 06:12:46;;;;;;;8.55;5.78;;;6.30;99.90;;;;;;4158464;28;20829;-84
2021/01/28 06:15:16;;;;;;;10.35;6.10;;;6.30;99.90;;;;;;4153726;28;20432;-84
2021/01/28 06:17:35;;;;;;;10.23;6.18;;;6.30;99.90;;;;;;4146272;28;20624;-84
2021/01/28 06:20:31;;;;;;;9.45;5.50;;;6.30;99.90;;;;;;4154435;28;20053;-84
2021/01/28 06:22:54;;;;;;;7.63;5.10;;;6.20;99.90;;;;;;4156176;28;20040;-84
2021/01/28 06:25:32;;;;;;;;;;;6.20;99.90;;;;;;4165760;28;20413;-84
2021/01/28 06:27:48;;;;;;;8.52;4.78;;;6.20;99.90;;;;;;4182016;28;19919;-84
2021/01/28 06:29:51;;;;;;;6.93;5.32;;;6.20;99.90;;;;;;4156615;28;20030;-84
2021/01/28 06:32:11;;;;;;;7.35;5.28;;;6.20;99.90;;;;;;4162447;28;20513;-84
2021/01/28 06:34:22;;;;;;;9.02;4.55;;;6.20;99.90;;;;;;4162102;28;20029;-84
2021/01/28 06:36:42;;;;;;;6.65;5.22;;;6.20;99.90;;;;;;4145571;28;20512;-84
2021/01/28 06:39:07;;;;;;;6.90;4.57;;;6.20;99.90;;;;;;4143005;28;20038;-84
2021/01/28 06:41:50;;;;;;;6.53;4.55;;;6.20;99.90;;;;;;4162173;28;20086;-84
2021/01/28 06:44:15;;;;;;;6.75;5.00;;;6.20;99.90;;;;;;4181460;28;20403;-84
2021/01/28 06:46:55;;;;;;;6.28;4.30;;;6.20;99.90;;;;;;4154856;28;20032;-84
2021/01/28 06:49:14;;;;;;;7.40;4.05;;;6.20;99.90;;;;;;4165754;28;20036;-84
2021/01/28 06:51:36;;;;;;;6.50;4.65;;;6.10;99.90;;;;;;4145757;28;20084;-84
2021/01/28 06:54:06;;;;;;;6.18;4.05;;;6.20;99.90;;;;;;4149428;28;20053;-84
2021/01/28 06:56:24;;;;;;;7.05;4.78;;;6.20;99.90;;;;;;4143587;28;20498;-84
2021/01/28 06:58:36;;;;;;;6.03;4.65;;;6.10;99.90;;;;;;4165741;28;20029;-84
2021/01/28 07:00:54;;;;;;;8.40;5.55;;;6.10;99.90;;;;;;4162750;28;20394;-85
2021/01/28 07:03:16;;;;;;;7.72;5.07;;;6.10;99.90;;;;;;4145361;28;20096;-84
2021/01/28 07:05:42;;;;;;;8.93;6.05;;;6.10;99.90;;;;;;4152883;28;20060;-84
2021/01/28 07:08:26;;;;;;;8.23;5.70;;;6.10;99.90;;;;;;4158111;28;20113;-84
2021/01/28 07:10:41;;;;;;;11.07;6.78;;;6.10;99.90;;;;;;4136090;28;20042;-84
2021/01/28 07:12:51;;;;;;;11.35;6.65;;;6.00;99.90;;;;;;4136316;28;20022;-84
2021/01/28 07:14:52;;;;;;;10.15;6.85;;;6.10;99.90;;;;;;4162854;28;20104;-84
2021/01/28 07:17:14;;;;;;;12.35;8.05;;;6.10;99.90;;;;;;4170230;28;20080;-84
2021/01/28 07:20:07;;;;;;;13.45;8.05;;;6.10;99.90;;;;;;4161505;28;20056;-84
2021/01/28 07:22:48;;;;;;;14.98;8.48;;;6.10;99.90;;;;;;4158188;28;20029;-84
2021/01/28 07:24:49;;;;;;;10.25;7.85;;;6.10;99.90;;;;;;4180768;28;20095;-84
2021/01/28 07:27:17;;;;;;;12.00;8.60;;;6.10;99.90;;;;;;4166755;28;20037;-84
2021/01/28 07:29:30;;;;;;;10.43;7.50;;;6.00;99.90;;;;;;4182155;28;20450;-82
2021/01/28 07:31:30;;;;;;;12.70;8.50;;;6.00;99.90;;;;;;4162047;28;20037;-83
2021/01/28 07:33:33;;;;;;;12.18;8.38;;;6.00;99.90;;;;;;4144051;28;20037;-82
2021/01/28 07:35:42;;;;;;;11.23;8.38;;;6.00;99.90;;;;;;4162664;28;20038;-82
2021/01/28 07:37:43;;;;;;;14.68;10.52;;;6.00;99.90;;;;;;4147259;28;20402;-82
2021/01/28 07:39:45;;;;;;;14.18;10.20;;;6.00;99.90;;;;;;4165477;28;20037;-81
2021/01/28 07:41:57;;;;;;;15.23;10.70;;;6.00;99.90;;;;;;4145403;28;20406;-82
2021/01/28 07:44:24;;;;;;;17.60;11.60;;;6.00;99.90;;;;;;4163091;28;20069;-81
2021/01/28 07:46:27;;;;;;;18.27;12.18;;;6.00;99.90;;;;;;4162032;28;20029;-81
2021/01/28 07:48:30;;;;;;;17.00;11.55;;;6.00;99.90;;;;;;4162349;28;20110;-81
2021/01/28 07:50:34;;;;;;;14.85;10.10;;;6.00;99.90;;;;;;4160363;28;20092;-82
2021/01/28 07:52:39;;;;;;;13.32;9.73;;;6.00;99.90;;;;;;4161486;28;20095;-82
2021/01/28 07:54:47;;;;;;;15.95;10.90;;;6.00;99.90;;;;;;4146414;28;20135;-82
2021/01/28 07:57:00;;;;;;;14.40;9.77;;;6.00;99.90;;;;;;4148728;28;20041;-82
2021/01/28 07:59:07;;;;;;;;;;;6.00;99.90;;;;;;4165912;28;20067;-82
2021/01/28 08:01:14;;;;;;;10.80;7.63;;;6.00;99.90;;;;;;4182574;28;19954;-82
2021/01/28 08:03:31;;;;;;;9.75;6.97;;;6.00;99.90;;;;;;4170128;28;20052;-82
2021/01/28 08:05:34;;;;;;;10.35;7.03;;;6.00;99.90;;;;;;4176289;28;20705;-82
2021/01/28 08:07:45;;;;;;;8.48;6.03;;;6.00;99.90;;;;;;4178635;28;20064;-82
2021/01/28 08:10:19;;;;;;;11.55;6.38;;;6.00;99.90;;;;;;4161423;28;20088;-82
2021/01/28 08:12:46;;;;;;;6.72;5.45;;;6.00;99.90;;;;;;4114554;28;20129;-81
2021/01/28 08:15:10;;;;;;;7.45;4.93;;;6.00;99.90;;;;;;4158666;28;20567;-81
2021/01/28 08:17:14;;;;;;;7.93;5.30;;;6.00;99.90;;;;;;4167122;28;20025;-81
2021/01/28 08:19:28;;;;;;;10.10;7.20;;;6.00;99.90;;;;;;4166490;28;20033;-82
2021/01/28 08:21:29;;;;;;;10.10;6.97;;;6.00;99.90;;;;;;4166958;28;20115;-82
2021/01/28 08:23:36;;;;;;;10.38;6.30;;;6.00;99.90;;;;;;4173366;28;20040;-82
2021/01/28 08:25:38;;;;;;;8.55;5.80;;;6.00;99.90;;;;;;4145246;28;20085;-82
2021/01/28 08:27:39;;;;;;;7.68;5.13;;;6.00;99.90;;;;;;4144382;28;20668;-81
2021/01/28 08:30:18;;;;;;;8.45;4.93;;;6.00;99.90;;;;;;4144611;28;20374;-81
2021/01/28 08:32:26;;;;;;;4.15;3.60;;;6.00;99.90;;;;;;4144233;28;20022;-82
2021/01/28 08:34:36;;;;;;;5.45;4.05;;;6.00;99.90;;;;;;4175834;28;20036;-82
2021/01/28 08:36:54;;;;;;;6.28;3.95;;;6.10;99.90;;;;;;4138024;28;20030;-82
2021/01/28 08:39:06;;;;;;;6.25;3.58;;;6.10;99.90;;;;;;4161984;28;20037;-82
2021/01/28 08:41:15;;;;;;;4.78;3.70;;;6.10;99.90;;;;;;4157380;28;20390;-82
2021/01/28 08:43:27;;;;;;;5.43;4.25;;;6.10;99.90;;;;;;4147164;28;20057;-82
2021/01/28 08:45:30;;;;;;;8.07;4.65;;;6.10;99.90;;;;;;4146860;28;20041;-81
2021/01/28 08:48:10;;;;;;;6.68;4.35;;;6.10;99.90;;;;;;4161869;28;20022;-81
2021/01/28 08:50:20;;;;;;;5.45;4.63;;;6.10;99.90;;;;;;4169363;28;20026;-82
2021/01/28 08:52:23;;;;;;;7.35;4.68;;;6.10;99.90;;;;;;4171126;28;20033;-83
2021/01/28 08:54:38;;;;;;;7.30;4.00;;;6.00;99.90;;;;;;4162812;28;20025;-82
2021/01/28 08:56:40;;;;;;;5.97;4.18;;;6.00;99.90;;;;;;4147885;28;20029;-84
2021/01/28 08:58:42;;;;;;;8.23;4.65;;;6.00;99.90;;;;;;4158478;28;20104;-82
2021/01/28 09:00:59;;;;;;;6.43;4.20;;;6.00;99.90;;;;;;4142606;28;20038;-82
2021/01/28 09:03:03;;;;;;;5.18;3.88;;;6.00;99.90;;;;;;4152264;28;20037;-83
2021/01/28 09:05:24;;;;;;;5.43;3.75;;;6.00;99.90;;;;;;4170044;28;20049;-83
2021/01/28 09:08:06;;;;;;;5.97;3.88;;;6.10;99.90;;;;;;4168011;28;20034;-82
2021/01/28 09:10:07;;;;;;;6.32;4.35;;;6.10;99.90;;;;;;4099087;28;20036;-82
2021/01/28 09:12:29;;;;;;;4.75;3.30;;;6.00;99.90;;;;;;4152219;28;20033;-82
2021/01/28 09:14:34;;;;;;;6.55;4.00;;;6.00;99.90;;;;;;4177826;28;20036;-83
2021/01/28 09:16:34;;;;;;;7.82;4.35;;;6.10;99.90;;;;;;4163334;28;20095;-82
2021/01/28 09:18:39;;;;;;;6.20;3.78;;;6.10;99.90;;;;;;4167696;28;20539;-82
2021/01/28 09:20:40;;;;;;;7.45;4.60;;;6.10;99.90;;;;;;4166078;28;20091;-82
2021/01/28 09:22:42;;;;;;;5.68;4.28;;;6.10;99.90;;;;;;4157459;28;20449;-83
2021/01/28 09:24:48;;;;;;;7.03;4.10;;;6.10;99.90;;;;;;4145773;28;21485;-83
2021/01/28 09:27:14;;;;;;;4.38;3.42;;;6.10;99.90;;;;;;4147291;28;20426;-83
2021/01/28 09:29:40;;;;;;;6.97;3.53;;;6.10;99.90;;;;;;4158199;28;20025;-82
2021/01/28 09:31:50;;;;;;;4.47;3.17;;;6.10;99.90;;;;;;4163183;28;20044;-83
2021/01/28 09:33:51;;;;;;;5.43;3.20;;;6.20;99.90;;;;;;4147835;28;20034;-83
2021/01/28 09:36:30;;;;;;;5.43;3.13;;;6.20;99.90;;;;;;4149032;28;20076;-82
2021/01/28 09:39:01;;;;;;;3.70;2.63;;;6.20;99.90;;;;;;4130900;28;20524;-83
2021/01/28 09:41:32;;;;;;;4.15;2.80;;;6.20;99.90;;;;;;4151294;28;20037;-82
2021/01/28 09:43:39;;;;;;;5.95;2.78;;;6.10;99.90;;;;;;4161683;28;20112;-82
2021/01/28 09:46:19;;;;;;;3.83;2.45;;;6.20;99.90;;;;;;4161823;28;20124;-83
2021/01/28 09:48:20;;;;;;;3.33;2.13;;;6.20;99.90;;;;;;4147921;28;20022;-83
2021/01/28 09:50:28;;;;;;;3.35;2.60;;;6.20;99.90;;;;;;4158767;28;20033;-82
2021/01/28 09:52:52;;;;;;;3.53;2.78;;;6.20;99.90;;;;;;4154146;28;20038;-82
2021/01/28 09:54:56;;;;;;;4.07;2.72;;;6.20;99.90;;;;;;4159691;28;20480;-82
2021/01/28 09:57:10;;;;;;;8.32;4.13;;;6.20;99.90;;;;;;4151207;28;20151;-82
2021/01/28 09:59:25;;;;;;;10.52;5.10;;;6.20;99.90;;;;;;4162510;28;20102;-82
2021/01/28 10:01:36;;;;;;;10.15;5.00;;;6.20;99.90;;;;;;4143117;28;20030;-82
2021/01/28 10:03:46;;;;;;;11.93;5.70;;;6.20;99.90;;;;;;4173808;28;20041;-82
2021/01/28 10:05:53;;;;;;;10.77;5.15;;;6.30;99.90;;;;;;4163070;28;20429;-82
2021/01/28 10:08:03;;;;;;;11.07;5.55;;;6.30;99.90;;;;;;4145824;28;20112;-81
2021/01/28 10:10:08;;;;;;;9.07;4.53;;;6.30;99.90;;;;;;4147827;28;20092;-82
2021/01/28 10:12:13;;;;;;;8.38;4.57;;;6.30;99.90;;;;;;4144968;28;20157;-82
2021/01/28 10:14:22;;;;;;;8.85;4.53;;;6.30;99.90;;;;;;4163979;28;20044;-81
2021/01/28 10:16:35;;;;;;;7.15;4.10;;;6.30;99.90;;;;;;4146343;28;20034;-82
2021/01/28 10:18:37;;;;;;;8.90;5.00;;;6.30;99.90;;;;;;4155030;28;20041;-82
2021/01/28 10:20:40;;;;;;;9.43;4.70;;;6.30;99.90;;;;;;4143987;28;20072;-82
2021/01/28 10:22:42;;;;;;;5.88;3.85;;;6.30;99.90;;;;;;4155735;28;20417;-82
2021/01/28 10:24:43;;;;;;;7.70;4.22;;;6.40;99.90;;;;;;4168153;28;20127;-82
2021/01/28 10:26:44;;;;;;;8.27;4.63;;;6.30;99.90;;;;;;4145295;28;20034;-82
2021/01/28 10:28:55;;;;;;;5.93;3.83;;;6.30;99.90;;;;;;4144296;28;20042;-82
2021/01/28 10:30:57;;;;;;;4.93;3.53;;;6.30;99.90;;;;;;4145648;28;20057;-82
2021/01/28 10:32:59;;;;;;;5.25;3.42;;;6.30;99.90;;;;;;4150444;28;20034;-82
2021/01/28 10:35:00;;;;;;;5.82;3.45;;;6.30;99.90;;;;;;4165413;28;20045;-83
2021/01/28 10:37:11;;;;;;;4.60;2.95;;;6.20;99.90;;;;;;4148946;28;20030;-82
2021/01/28 10:39:18;;;;;;;4.63;3.33;;;6.20;99.90;;;;;;4160408;28;20038;-82
2021/01/28 10:41:21;;;;;;;4.47;3.05;;;6.20;99.90;;;;;;4143085;28;20061;-82
2021/01/28 10:43:28;;;;;;;;;;;6.20;99.90;;;;;;4174417;28;20120;-82
2021/01/28 10:45:41;;;;;;;4.20;2.88;;;6.20;99.90;;;;;;4161076;28;19924;-82
2021/01/28 10:47:56;;;;;;;5.05;2.67;;;6.20;99.90;;;;;;4145337;28;20038;-82
2021/01/28 10:50:08;;;;;;;4.13;2.70;;;6.10;99.90;;;;;;4156414;28;20297;-82
2021/01/28 10:52:20;;;;;;;4.03;2.90;;;6.20;99.90;;;;;;4142797;28;20025;-82
2021/01/28 10:54:30;;;;;;;6.10;2.55;;;6.10;99.90;;;;;;4150535;28;20041;-82
2021/01/28 10:56:43;;;;;;;3.70;1.98;;;6.10;99.90;;;;;;4150118;28;20945;-82
2021/01/28 10:58:44;;;;;;;;;;;6.10;99.90;;;;;;4161612;28;20034;-82
2021/01/28 11:00:56;;;;;;;3.40;2.53;;;6.10;99.90;;;;;;4164982;28;19963;-82
2021/01/28 11:02:56;;;;;;;10.55;3.30;;;6.10;99.90;;;;;;4181043;28;20041;-82
2021/01/28 11:04:57;;;;;;;4.30;2.40;;;6.00;99.90;;;;;;4174480;28;20069;-82
2021/01/28 11:06:58;;;;;;;3.50;2.25;;;6.10;99.90;;;;;;4163968;28;20095;-82
2021/01/28 11:08:58;;;;;;;3.30;2.30;;;6.00;99.90;;;;;;4152809;28;20030;-82